Rachel Borchard — V2BW7 — position and weather

sailwx.info

Track history (hours):
 
Tides and Currents Weather Stations Pressure Air Temp Water Temp Dewpoint Dewpoint Depression Visibility Wind Speed Wind Dir Waves Ship Positions

Rachel Borchard

Last reported at 2017-Nov-18 02:13 UTC. Time now 2017-Nov-18 21:53 UTC.
Position N 43°10' E 009°32'.

Length 135 m; draft 8 m.

Type: Ship (hazmat cat A). MMSI: 304623000.

Date/timePositionNaut miles runAvg speedWind from/ knotsBaromVisibWave heightAir tempDewpointWater temp
2017-Nov-18 02:13N 43°10' E 009°32'315.8
2017-Nov-18 02:01N 43°13' E 009°31'816.4
2017-Nov-18 01:30N 43°21' E 009°28'816.9
2017-Nov-18 01:00N 43°29' E 009°24'816.9
2017-Nov-18 00:31N 43°37' E 009°20'816.9
2017-Nov-18 00:01N 43°45' E 009°16'917.0
2017-Nov-17 23:31N 43°53' E 009°11'917.2
2017-Nov-17 23:01N 44°01' E 009°07'917.2
2017-Nov-17 22:31N 44°09' E 009°05'917.4
2017-Nov-17 22:00N 44°17' E 008°59'713.4
2017-Nov-17 21:30N 44°23' E 008°57'2 4.3
2017-Nov-17 21:00N 44°24' E 008°54'0 0.0
2017-Nov-17 20:28N 44°24' E 008°54'0 0.0
2017-Nov-17 19:59N 44°24' E 008°54'0 0.0
2017-Nov-17 19:29N 44°24' E 008°54'0 0.0
2017-Nov-17 19:01N 44°24' E 008°54'0 0.0
2017-Nov-17 18:30N 44°24' E 008°54'0 0.0
2017-Nov-17 18:00N 44°24' E 008°54'0 0.0
2017-Nov-17 17:30N 44°24' E 008°54'0 0.0
2017-Nov-17 17:00N 44°24' E 008°54'0 0.0
2017-Nov-17 16:28N 44°24' E 008°54'0 0.0
2017-Nov-17 15:59N 44°24' E 008°54'0 0.0
2017-Nov-17 15:28N 44°24' E 008°54'0 0.0
2017-Nov-17 15:00N 44°24' E 008°54'0 0.0
2017-Nov-17 14:30N 44°24' E 008°54'0 0.0
2017-Nov-17 13:58N 44°24' E 008°54'0 0.0
2017-Nov-17 13:30N 44°24' E 008°54'0 0.0
2017-Nov-17 13:00N 44°24' E 008°54'0 0.0
2017-Nov-17 12:30N 44°24' E 008°54'0 0.0
2017-Nov-17 11:59N 44°24' E 008°54'0 0.0
2017-Nov-17 11:30N 44°24' E 008°54'2 4.0
2017-Nov-17 11:00N 44°23' E 008°56'4 7.6
2017-Nov-17 10:30N 44°20' E 008°59'714.9
2017-Nov-17 10:00N 44°15' E 008°51'815.3
2017-Nov-17 09:30N 44°10' E 008°44'7313.5
2017-Nov-17 04:05N 43°24' E 007°24'411.8
2017-Nov-17 03:44N 43°21' E 007°19'311.7
2017-Nov-17 03:30N 43°20' E 007°16'711.5
2017-Nov-17 02:52N 43°16' E 007°08'411.7
2017-Nov-17 02:30N 43°13' E 007°03'77 8.9
2017-Nov-16 17:47N 43°21' E 005°18'  
2017-Nov-12 13:48N 38°54' E 015°23'815.7
2017-Nov-12 13:19N 38°47' E 015°26'515.8
2017-Nov-12 12:58N 38°42' E 015°29'816.0
2017-Nov-12 12:29N 38°35' E 015°32'816.2
2017-Nov-12 12:00N 38°27' E 015°36'816.6
2017-Nov-12 11:31N 38°20' E 015°40'713.3
2017-Nov-12 11:01N 38°14' E 015°37'815.6
2017-Nov-12 10:30N 38°06' E 015°36'815.6
2017-Nov-12 10:00N 37°58' E 015°37'816.3
2017-Nov-12 09:31N 37°52' E 015°44'  
Track history (hours):
 
Tides and Currents Weather Stations Pressure Air Temp Water Temp Dewpoint Dewpoint Depression Visibility Wind Speed Wind Dir Waves Ship Positions

Rachel Borchard

Last reported at 2017-Nov-18 02:13 UTC. Time now 2017-Nov-18 21:53 UTC.
Position N 43°10' E 009°32'.

Length 135 m; draft 8 m.

Type: Ship (hazmat cat A). MMSI: 304623000.

Date/timePositionNaut miles runAvg speedWind from/ knotsBaromVisibWave heightAir tempDewpointWater temp
2017-Nov-18 02:13N 43°10' E 009°32'315.8
2017-Nov-18 02:01N 43°13' E 009°31'816.4
2017-Nov-18 01:30N 43°21' E 009°28'816.9
2017-Nov-18 01:00N 43°29' E 009°24'816.9
2017-Nov-18 00:31N 43°37' E 009°20'816.9
2017-Nov-18 00:01N 43°45' E 009°16'917.0
2017-Nov-17 23:31N 43°53' E 009°11'917.2
2017-Nov-17 23:01N 44°01' E 009°07'917.2
2017-Nov-17 22:31N 44°09' E 009°05'917.4
2017-Nov-17 22:00N 44°17' E 008°59'713.4
2017-Nov-17 21:30N 44°23' E 008°57'2 4.3
2017-Nov-17 21:00N 44°24' E 008°54'0 0.0
2017-Nov-17 20:28N 44°24' E 008°54'0 0.0
2017-Nov-17 19:59N 44°24' E 008°54'0 0.0
2017-Nov-17 19:29N 44°24' E 008°54'0 0.0
2017-Nov-17 19:01N 44°24' E 008°54'0 0.0
2017-Nov-17 18:30N 44°24' E 008°54'0 0.0
2017-Nov-17 18:00N 44°24' E 008°54'0 0.0
2017-Nov-17 17:30N 44°24' E 008°54'0 0.0
2017-Nov-17 17:00N 44°24' E 008°54'0 0.0
2017-Nov-17 16:28N 44°24' E 008°54'0 0.0
2017-Nov-17 15:59N 44°24' E 008°54'0 0.0
2017-Nov-17 15:28N 44°24' E 008°54'0 0.0
2017-Nov-17 15:00N 44°24' E 008°54'0 0.0
2017-Nov-17 14:30N 44°24' E 008°54'0 0.0
2017-Nov-17 13:58N 44°24' E 008°54'0 0.0
2017-Nov-17 13:30N 44°24' E 008°54'0 0.0
2017-Nov-17 13:00N 44°24' E 008°54'0 0.0
2017-Nov-17 12:30N 44°24' E 008°54'0 0.0
2017-Nov-17 11:59N 44°24' E 008°54'0 0.0
2017-Nov-17 11:30N 44°24' E 008°54'2 4.0
2017-Nov-17 11:00N 44°23' E 008°56'4 7.6
2017-Nov-17 10:30N 44°20' E 008°59'714.9
2017-Nov-17 10:00N 44°15' E 008°51'815.3
2017-Nov-17 09:30N 44°10' E 008°44'7313.5
2017-Nov-17 04:05N 43°24' E 007°24'411.8
2017-Nov-17 03:44N 43°21' E 007°19'311.7
2017-Nov-17 03:30N 43°20' E 007°16'711.5
2017-Nov-17 02:52N 43°16' E 007°08'411.7
2017-Nov-17 02:30N 43°13' E 007°03'77 8.9
2017-Nov-16 17:47N 43°21' E 005°18'  
2017-Nov-12 13:48N 38°54' E 015°23'815.7
2017-Nov-12 13:19N 38°47' E 015°26'515.8
2017-Nov-12 12:58N 38°42' E 015°29'816.0
2017-Nov-12 12:29N 38°35' E 015°32'816.2
2017-Nov-12 12:00N 38°27' E 015°36'816.6
2017-Nov-12 11:31N 38°20' E 015°40'713.3
2017-Nov-12 11:01N 38°14' E 015°37'815.6
2017-Nov-12 10:30N 38°06' E 015°36'815.6
2017-Nov-12 10:00N 37°58' E 015°37'816.3
2017-Nov-12 09:31N 37°52' E 015°44'  

Dump ship's entire track history